Time;durP1;ratioP1;P1;durP2;ratioP2;P2;SDS_P1;SDS_P2;PMS_P1;PMS_P2;Temp;Humidity;BMP_temperature;BMP_pressure;BME280_temperature;BME280_humidity;BME280_pressure;Samples;Min_cycle;Max_cycle;Signal;HPM_P1;HPM_P2
2023/06/10 00:00:41;;;;;;;9.45;6.82;;;;;;;17.96;86.10;99542.88;5007245;28;20033;-19
2023/06/10 00:03:08;;;;;;;11.18;7.53;;;;;;;18.09;86.57;99548.72;5007696;28;20116;-19
2023/06/10 00:05:34;;;;;;;10.32;6.88;;;;;;;18.21;85.32;99543.78;5007319;28;20551;-19
2023/06/10 00:08:06;;;;;;;11.88;7.43;;;;;;;18.16;85.90;99538.41;5007662;28;20034;-19
2023/06/10 00:10:35;;;;;;;11.23;7.20;;;;;;;18.14;85.76;99540.59;5007111;28;20025;-19
2023/06/10 00:13:03;;;;;;;12.70;7.55;;;;;;;18.14;86.08;99546.78;5007225;28;20045;-18
2023/06/10 00:15:29;;;;;;;;;;;;;;;18.28;85.06;99541.56;5007740;28;20033;-19
2023/06/10 00:17:54;;;;;;;13.52;7.13;;;;;;;18.10;85.84;99539.53;5007256;28;19913;-18
2023/06/10 00:20:23;;;;;;;10.73;7.32;;;;;;;18.41;84.56;99530.13;5007006;28;20427;-21
2023/06/10 00:22:49;;;;;;;12.23;7.10;;;;;;;18.37;84.69;99529.06;5007285;28;20022;-19
2023/06/10 00:25:15;;;;;;;11.77;7.35;;;;;;;18.46;84.39;99526.56;5006707;28;20030;-19
2023/06/10 00:27:40;;;;;;;10.65;6.85;;;;;;;18.47;84.22;99526.28;5006953;28;20032;-19
2023/06/10 00:30:06;;;;;;;10.13;6.72;;;;;;;18.46;84.95;99527.34;5006767;28;20117;-19
2023/06/10 00:32:36;;;;;;;11.07;6.22;;;;;;;18.47;85.23;99523.56;5007017;28;20105;-19
2023/06/10 00:35:03;;;;;;;10.70;6.60;;;;;;;18.57;84.24;99538.06;5005818;28;20420;-19
2023/06/10 00:37:29;;;;;;;12.40;7.00;;;;;;;18.32;86.26;99529.09;5006827;28;20029;-19
2023/06/10 00:39:54;;;;;;;11.85;7.53;;;;;;;18.04;87.55;99520.69;5006841;28;20034;-19
2023/06/10 00:42:22;;;;;;;10.73;6.43;;;;;;;17.85;88.71;99525.16;5006460;28;20402;-20
2023/06/10 00:44:47;;;;;;;10.40;7.05;;;;;;;17.38;90.75;99503.00;5007012;28;20033;-18
2023/06/10 00:47:13;;;;;;;11.18;7.03;;;;;;;17.75;88.45;99500.91;5006587;28;20034;-18
2023/06/10 00:49:39;;;;;;;10.38;6.50;;;;;;;17.77;87.98;99520.31;5006599;28;20046;-18
2023/06/10 00:52:06;;;;;;;12.05;7.05;;;;;;;17.57;88.95;99515.84;5006613;28;20535;-19
2023/06/10 00:54:32;;;;;;;12.50;6.73;;;;;;;17.76;88.07;99513.31;5006470;28;20782;-19
2023/06/10 00:57:01;;;;;;;14.32;7.00;;;;;;;17.39;88.21;99504.63;5006597;28;20033;-22
2023/06/10 00:59:28;;;;;;;12.05;6.95;;;;;;;17.36;88.77;99531.31;5006391;28;20029;-18
2023/06/10 01:01:53;;;;;;;13.07;6.80;;;;;;;17.42;88.53;99535.59;5006472;28;20099;-19
2023/06/10 01:04:19;;;;;;;14.93;6.72;;;;;;;16.91;91.63;99531.22;5006438;28;20458;-19
2023/06/10 01:07:14;;;;;;;11.93;7.63;;;;;;;17.14;90.15;99519.03;5006372;28;20556;-20
2023/06/10 01:09:49;;;;;;;15.45;7.90;;;;;;;17.68;87.66;99534.38;5006276;28;20083;-19
2023/06/10 01:12:34;;;;;;;10.10;6.72;;;;;;;17.30;88.55;99511.66;5006203;28;20033;-19
2023/06/10 01:15:01;;;;;;;13.77;7.03;;;;;;;17.52;88.41;99522.06;5006029;28;20121;-18
2023/06/10 01:17:27;;;;;;;13.68;7.55;;;;;;;17.44;89.81;99523.47;5006343;28;20412;-19
2023/06/10 01:19:58;;;;;;;10.10;6.88;;;;;;;17.51;89.26;99527.75;5006135;28;20034;-18
2023/06/10 01:22:36;;;;;;;10.55;7.47;;;;;;;17.61;87.97;99531.22;5006080;28;20725;-18
2023/06/10 01:25:03;;;;;;;;;;;;;;;17.70;86.73;99534.13;5006414;28;20034;-22
2023/06/10 01:27:32;;;;;;;10.57;6.77;;;;;;;17.57;86.52;99532.84;5006149;28;19920;-19
2023/06/10 01:30:20;;;;;;;12.77;7.22;;;;;;;17.12;89.52;99525.75;5005826;28;20715;-23
2023/06/10 01:32:50;;;;;;;11.68;6.68;;;;;;;17.01;90.56;99515.03;5005869;28;20065;-19
2023/06/10 01:35:16;;;;;;;10.40;6.80;;;;;;;17.60;87.86;99526.88;5005823;28;20128;-19
2023/06/10 01:37:46;;;;;;;10.77;6.40;;;;;;;17.46;87.40;99515.09;5005823;28;20390;-20
2023/06/10 01:40:13;;;;;;;10.10;6.55;;;;;;;17.80;85.42;99520.56;5005848;28;20048;-19
2023/06/10 01:42:41;;;;;;;10.02;6.30;;;;;;;17.84;85.23;99512.75;5005725;28;20057;-19
2023/06/10 01:45:07;;;;;;;9.10;6.60;;;;;;;17.40;87.83;99516.22;5005546;28;20030;-19
2023/06/10 01:47:32;;;;;;;12.88;6.38;;;;;;;16.97;90.08;99521.25;5005633;28;20026;-18
2023/06/10 01:49:58;;;;;;;10.90;6.85;;;;;;;16.85;90.89;99516.16;5005957;28;20167;-19
2023/06/10 01:52:23;;;;;;;11.27;6.65;;;;;;;16.85;90.74;99516.94;5005756;28;20030;-19
2023/06/10 01:54:48;;;;;;;9.63;6.32;;;;;;;17.00;88.93;99518.81;5005356;28;20879;-19
2023/06/10 01:57:15;;;;;;;11.30;6.68;;;;;;;17.09;88.82;99516.34;5005583;28;20037;-19
2023/06/10 01:59:44;;;;;;;11.93;6.50;;;;;;;17.23;88.68;99544.31;5005694;28;20033;-18
2023/06/10 02:02:09;;;;;;;12.50;7.10;;;;;;;17.41;86.50;99547.50;5005816;28;20030;-18
2023/06/10 02:04:35;;;;;;;11.10;7.47;;;;;;;17.27;87.31;99529.22;5005574;28;20041;-17
2023/06/10 02:07:03;;;;;;;13.45;8.20;;;;;;;17.40;86.18;99548.56;5005588;28;20041;-19
2023/06/10 02:09:30;;;;;;;11.23;7.03;;;;;;;17.60;85.62;99550.34;5005797;28;20030;-21
2023/06/10 02:11:55;;;;;;;11.45;7.55;;;;;;;17.25;87.77;99539.47;5005659;28;20080;-20
2023/06/10 02:14:21;;;;;;;10.38;6.72;;;;;;;17.22;88.93;99541.88;5005573;28;20647;-20
2023/06/10 02:16:46;;;;;;;11.95;7.15;;;;;;;17.36;88.41;99548.28;5005504;28;21414;-19
2023/06/10 02:19:12;;;;;;;12.50;7.20;;;;;;;17.29;88.42;99549.69;5005440;28;20468;-19
2023/06/10 02:21:38;;;;;;;13.23;8.10;;;;;;;17.52;87.47;99557.13;5005347;28;20030;-18
2023/06/10 02:24:04;;;;;;;13.80;7.50;;;;;;;17.11;89.69;99554.59;5005434;28;20036;-20
2023/06/10 02:26:30;;;;;;;18.63;7.57;;;;;;;17.18;90.26;99557.81;5005184;28;20057;-23
2023/06/10 02:28:55;;;;;;;13.25;7.63;;;;;;;17.40;89.08;99562.03;5005663;28;20128;-18
2023/06/10 02:31:21;;;;;;;11.10;6.78;;;;;;;17.10;90.43;99547.63;5005377;28;20109;-19
2023/06/10 02:33:46;;;;;;;10.20;6.85;;;;;;;16.89;92.58;99554.13;5005266;28;20033;-19
2023/06/10 02:36:13;;;;;;;17.05;7.50;;;;;;;17.23;90.64;99555.09;5005251;28;20030;-18
2023/06/10 02:38:44;;;;;;;13.90;7.63;;;;;;;17.39;90.18;99563.94;5005530;28;20037;-18
2023/06/10 02:41:09;;;;;;;10.15;7.18;;;;;;;17.62;88.24;99567.84;5005777;28;20041;-19
2023/06/10 02:43:34;;;;;;;12.20;7.80;;;;;;;17.53;89.43;99561.44;5005022;28;20042;-20
2023/06/10 02:46:00;;;;;;;10.82;7.43;;;;;;;17.53;88.86;99563.31;5005162;28;20022;-21
2023/06/10 02:48:26;;;;;;;12.70;7.93;;;;;;;17.51;89.17;99554.69;5005586;28;20038;-19
2023/06/10 02:50:52;;;;;;;12.70;7.97;;;;;;;17.82;87.30;99563.44;5005177;28;20034;-19
2023/06/10 02:53:17;;;;;;;11.60;7.88;;;;;;;17.81;86.91;99567.22;5005210;28;20088;-18
2023/06/10 02:55:44;;;;;;;11.95;7.78;;;;;;;17.74;87.15;99569.44;5005023;28;20407;-19
2023/06/10 02:58:09;;;;;;;10.95;7.63;;;;;;;17.27;90.12;99572.31;5006104;28;20033;-18
2023/06/10 03:00:35;;;;;;;17.40;8.55;;;;;;;17.42;90.20;99570.66;5008490;28;20041;-20
2023/06/10 03:03:03;;;;;;;12.52;7.95;;;;;;;17.28;90.96;99573.13;5008648;28;20080;-19
2023/06/10 03:05:29;;;;;;;19.15;8.70;;;;;;;17.26;90.46;99565.34;5008653;28;20048;-19
2023/06/10 03:07:54;;;;;;;16.13;8.40;;;;;;;17.24;90.29;99566.66;5008241;28;20041;-20
2023/06/10 03:10:20;;;;;;;12.10;7.45;;;;;;;17.64;87.05;99570.28;5008527;28;20025;-18
2023/06/10 03:12:45;;;;;;;13.00;7.75;;;;;;;17.80;86.84;99569.13;5008365;28;20034;-19
2023/06/10 03:15:11;;;;;;;17.60;8.20;;;;;;;17.43;88.34;99572.28;5008563;28;20108;-19
2023/06/10 03:17:36;;;;;;;19.17;7.85;;;;;;;17.43;88.55;99574.97;5007956;28;20472;-20
2023/06/10 03:20:05;;;;;;;16.20;8.20;;;;;;;17.12;90.80;99575.09;5008298;28;20120;-18
2023/06/10 03:22:31;;;;;;;20.05;7.93;;;;;;;17.26;90.39;99586.91;5007986;28;20033;-19
2023/06/10 03:24:57;;;;;;;15.60;8.63;;;;;;;17.27;90.53;99583.09;5008491;28;20533;-19
2023/06/10 03:27:23;;;;;;;11.27;7.22;;;;;;;17.33;90.86;99575.00;5008047;28;20120;-19
2023/06/10 03:29:48;;;;;;;19.25;7.57;;;;;;;17.17;92.15;99574.25;5008144;28;20117;-18
2023/06/10 03:32:14;;;;;;;15.00;7.53;;;;;;;16.95;93.00;99580.75;5008271;28;20053;-30
2023/06/10 03:34:40;;;;;;;13.65;6.50;;;;;;;16.97;92.57;99573.22;5007962;28;20026;-18
2023/06/10 03:37:06;;;;;;;12.60;6.93;;;;;;;16.87;91.93;99568.66;5008083;28;20116;-20
2023/06/10 03:39:32;;;;;;;11.93;7.82;;;;;;;16.79;93.50;99569.19;5007742;28;20523;-19
2023/06/10 03:41:57;;;;;;;13.02;6.78;;;;;;;16.76;94.70;99567.03;5008010;28;20092;-18
2023/06/10 03:44:25;;;;;;;12.65;7.53;;;;;;;16.59;94.47;99570.03;5007717;28;20521;-19
2023/06/10 03:46:51;;;;;;;13.85;7.50;;;;;;;16.92;92.07;99573.25;5007788;28;20037;-19
2023/06/10 03:49:17;;;;;;;15.63;7.32;;;;;;;17.00;90.50;99567.31;5007607;28;20036;-19
2023/06/10 03:51:43;;;;;;;15.90;8.25;;;;;;;16.86;92.36;99572.44;5007593;28;20021;-19
2023/06/10 03:54:08;;;;;;;16.30;7.70;;;;;;;17.07;91.92;99578.59;5007692;28;20026;-19
2023/06/10 03:56:35;;;;;;;14.30;7.90;;;;;;;17.42;89.34;99570.66;5007692;28;20033;-19
2023/06/10 03:59:00;;;;;;;11.52;7.43;;;;;;;17.27;90.52;99561.53;5007448;28;20030;-18
2023/06/10 04:01:27;;;;;;;14.73;8.18;;;;;;;17.16;92.14;99576.16;5007437;28;20043;-21
2023/06/10 04:03:54;;;;;;;14.88;10.25;;;;;;;17.25;92.20;99576.38;5007439;28;20033;-19
2023/06/10 04:06:19;;;;;;;15.68;9.63;;;;;;;17.63;89.35;99574.88;5007329;28;20037;-19
2023/06/10 04:08:45;;;;;;;13.50;9.63;;;;;;;17.83;88.70;99568.56;5007007;28;20022;-17
2023/06/10 04:11:10;;;;;;;14.30;8.43;;;;;;;17.68;89.36;99572.13;5007171;28;20413;-19
2023/06/10 04:13:36;;;;;;;15.27;8.48;;;;;;;17.64;90.21;99560.28;5007272;28;20049;-18
2023/06/10 04:16:02;;;;;;;14.95;8.95;;;;;;;17.79;89.82;99572.09;5007497;28;20051;-18
2023/06/10 04:18:28;;;;;;;15.45;9.15;;;;;;;17.90;90.30;99562.88;5007198;28;20528;-18
2023/06/10 04:20:54;;;;;;;15.57;8.65;;;;;;;17.86;90.50;99551.03;5007006;28;20034;-18
2023/06/10 04:23:19;;;;;;;17.85;9.48;;;;;;;18.18;88.73;99563.22;5006970;28;20021;-18
2023/06/10 04:25:45;;;;;;;16.77;9.40;;;;;;;18.24;90.41;99562.09;5007215;28;20022;-18
2023/06/10 04:28:10;;;;;;;17.50;9.38;;;;;;;18.18;90.44;99557.81;5007151;28;20022;-18
2023/06/10 04:30:35;;;;;;;14.48;9.32;;;;;;;18.48;89.76;99543.28;5006681;28;20033;-18
2023/06/10 04:33:01;;;;;;;17.08;9.45;;;;;;;18.56;89.39;99544.56;5007219;28;20036;-18
2023/06/10 04:35:27;;;;;;;13.73;9.38;;;;;;;18.78;88.04;99552.19;5006893;28;20398;-18
2023/06/10 04:37:53;;;;;;;15.85;9.55;;;;;;;18.59;89.74;99547.50;5006967;28;20100;-24
2023/06/10 04:40:19;;;;;;;18.23;9.23;;;;;;;18.24;91.57;99546.69;5006728;28;20022;-18
2023/06/10 04:42:44;;;;;;;20.13;10.23;;;;;;;18.44;91.10;99551.13;5006657;28;20069;-18
2023/06/10 04:45:10;;;;;;;18.67;10.18;;;;;;;18.62;91.74;99546.13;5006579;28;20037;-18
2023/06/10 04:47:36;;;;;;;18.88;9.90;;;;;;;18.99;89.49;99556.28;5006553;28;20683;-19
2023/06/10 04:50:03;;;;;;;22.15;11.63;;;;;;;19.09;89.63;99558.09;5006671;28;20123;-19
2023/06/10 04:52:28;;;;;;;19.37;11.67;;;;;;;18.99;92.03;99552.78;5004272;28;20089;-18
2023/06/10 04:54:54;;;;;;;20.27;11.75;;;;;;;19.13;92.05;99551.00;5005239;28;20107;-18
2023/06/10 04:57:20;;;;;;;22.52;11.93;;;;;;;19.39;91.21;99559.63;5006116;28;20026;-18
2023/06/10 04:59:46;;;;;;;22.85;11.38;;;;;;;19.44;91.89;99547.94;5005564;28;20025;-21
2023/06/10 05:02:12;;;;;;;20.25;11.38;;;;;;;19.36;91.90;99559.41;5005431;28;20572;-20
2023/06/10 05:04:37;;;;;;;14.68;10.23;;;;;;;19.46;91.04;99560.06;5005946;28;20112;-18
2023/06/10 05:07:03;;;;;;;16.35;10.75;;;;;;;19.73;91.57;99563.28;5005899;28;20037;-18
2023/06/10 05:09:29;;;;;;;16.50;10.80;;;;;;;19.70;91.63;99569.25;5005901;28;20099;-18
2023/06/10 05:11:54;;;;;;;15.48;11.43;;;;;;;19.97;89.30;99564.00;5005330;28;20125;-19
2023/06/10 05:14:20;;;;;;;16.15;11.30;;;;;;;20.25;87.42;99567.63;5005571;28;20417;-19
2023/06/10 05:16:47;;;;;;;14.85;10.23;;;;;;;20.34;88.42;99575.09;5005638;28;20036;-18
2023/06/10 05:19:12;;;;;;;14.63;11.07;;;;;;;20.22;89.16;99559.28;5005467;28;20038;-18
2023/06/10 05:21:37;;;;;;;13.85;11.23;;;;;;;20.35;86.57;99571.25;5005106;28;20049;-19
2023/06/10 05:24:03;;;;;;;15.68;11.00;;;;;;;20.17;87.53;99556.69;5005129;28;20037;-18
2023/06/10 05:26:31;;;;;;;20.25;11.80;;;;;;;20.22;87.43;99565.50;5005435;28;20049;-20
2023/06/10 05:28:57;;;;;;;19.15;13.00;;;;;;;20.46;85.29;99570.81;5005341;28;20120;-18
2023/06/10 05:31:22;;;;;;;18.17;14.00;;;;;;;20.54;84.51;99565.81;5005191;28;20128;-18
2023/06/10 05:33:47;;;;;;;21.77;16.42;;;;;;;20.84;82.18;99565.31;5005248;28;20042;-18
2023/06/10 05:36:13;;;;;;;19.42;15.27;;;;;;;20.97;80.76;99562.91;5005478;28;20563;-18
2023/06/10 05:38:38;;;;;;;16.40;13.88;;;;;;;20.94;81.25;99564.28;5005232;28;20030;-18
2023/06/10 05:41:04;;;;;;;16.20;12.05;;;;;;;20.90;80.65;99562.47;5005486;28;20030;-19
2023/06/10 05:43:29;;;;;;;19.02;13.32;;;;;;;21.10;81.22;99562.09;5005767;28;20555;-18
2023/06/10 05:45:55;;;;;;;18.85;14.40;;;;;;;21.01;80.42;99555.78;5004657;28;20818;-18
2023/06/10 05:48:20;;;;;;;22.52;16.60;;;;;;;21.16;80.21;99560.88;5004029;28;20038;-18
2023/06/10 05:50:48;;;;;;;21.38;16.55;;;;;;;20.79;82.51;99568.09;5004401;28;20038;-18
2023/06/10 05:53:14;;;;;;;22.35;16.67;;;;;;;20.79;80.99;99568.09;4997850;28;20429;-18
2023/06/10 05:55:45;;;;;;;22.92;18.23;;;;;;;20.82;82.38;99562.09;5005070;28;20092;-20
2023/06/10 05:58:12;;;;;;;23.50;18.85;;;;;;;20.98;81.31;99573.44;5004924;28;20093;-19
2023/06/10 06:00:40;;;;;;;27.88;17.67;;;;;;;20.97;83.22;99563.69;5005486;28;20026;-18
2023/06/10 06:03:08;;;;;;;20.67;14.25;;;;;;;21.21;80.63;99579.78;5005146;28;20063;-21
2023/06/10 06:05:35;;;;;;;19.50;13.90;;;;;;;21.31;80.30;99572.53;5004695;28;20109;-18
2023/06/10 06:08:04;;;;;;;20.33;13.60;;;;;;;21.43;81.14;99581.00;5004165;28;20500;-19
2023/06/10 06:10:30;;;;;;;31.17;15.23;;;;;;;21.55;80.88;99575.06;5005054;28;20030;-18
2023/06/10 06:12:55;;;;;;;13.52;10.73;;;;;;;21.65;78.23;99578.34;5004984;28;20033;-18
2023/06/10 06:15:21;;;;;;;13.32;11.20;;;;;;;21.63;79.46;99575.13;5004226;28;20030;-18
2023/06/10 06:17:46;;;;;;;17.00;10.63;;;;;;;21.72;80.31;99566.28;5004378;28;20445;-19
2023/06/10 06:20:12;;;;;;;13.50;9.85;;;;;;;21.99;77.64;99566.19;5004968;28;20029;-19
2023/06/10 06:22:37;;;;;;;13.90;10.00;;;;;;;22.28;77.24;99567.72;5004825;28;20022;-19
2023/06/10 06:25:03;;;;;;;11.57;9.15;;;;;;;22.66;74.20;99567.31;5004985;28;20437;-18
2023/06/10 06:27:29;;;;;;;12.73;9.65;;;;;;;22.72;72.78;99566.09;5004592;28;20160;-18
2023/06/10 06:29:54;;;;;;;13.27;9.43;;;;;;;22.60;74.52;99568.56;5004425;28;20038;-20
2023/06/10 06:32:21;;;;;;;10.00;8.23;;;;;;;22.71;71.94;99560.94;5006151;28;20021;-19
2023/06/10 06:34:49;;;;;;;11.30;8.00;;;;;;;23.18;71.41;99566.78;5009065;28;20038;-19
2023/06/10 06:37:14;;;;;;;11.38;7.53;;;;;;;23.15;70.96;99568.22;5008020;28;20288;-18
2023/06/10 06:39:40;;;;;;;12.77;7.70;;;;;;;23.17;70.65;99552.38;5008672;28;20075;-19
2023/06/10 06:42:06;;;;;;;11.63;7.95;;;;;;;23.20;69.20;99564.53;5010073;28;20041;-19
2023/06/10 06:44:31;;;;;;;12.30;7.93;;;;;;;23.21;70.61;99566.13;5017155;28;20029;-18
2023/06/10 06:46:56;;;;;;;10.02;7.80;;;;;;;23.58;69.85;99564.78;5016401;28;20121;-19
2023/06/10 06:49:22;;;;;;;11.85;8.00;;;;;;;23.69;68.38;99573.44;5017478;28;20028;-20
2023/06/10 06:51:47;;;;;;;18.20;8.00;;;;;;;23.51;70.87;99567.16;5024327;28;20056;-19
2023/06/10 06:54:13;;;;;;;9.77;6.93;;;;;;;23.48;70.65;99565.09;5016699;28;20091;-18
2023/06/10 06:56:38;;;;;;;9.25;7.13;;;;;;;23.73;68.88;99560.81;5010531;28;20415;-21
2023/06/10 06:59:04;;;;;;;10.57;7.60;;;;;;;23.41;69.70;99551.13;5016375;28;20519;-19
2023/06/10 07:01:30;;;;;;;11.10;7.63;;;;;;;23.52;69.13;99557.91;5028396;28;20029;-19
2023/06/10 07:03:58;;;;;;;12.18;7.70;;;;;;;23.72;69.06;99558.38;5017161;28;20029;-18
2023/06/10 07:06:23;;;;;;;;;;;;;;;23.92;68.43;99565.97;5016277;28;20038;-19
2023/06/10 07:08:49;;;;;;;10.20;7.63;;;;;;;23.84;67.89;99556.69;5010815;28;19924;-18
2023/06/10 07:11:14;;;;;;;9.73;7.45;;;;;;;23.98;66.59;99561.94;5006436;28;20386;-19
2023/06/10 07:13:41;;;;;;;12.27;8.07;;;;;;;23.95;67.34;99557.16;5010259;28;20029;-19
2023/06/10 07:16:07;;;;;;;11.32;7.47;;;;;;;23.99;66.67;99555.41;5003670;28;20025;-20
2023/06/10 07:18:32;;;;;;;11.73;8.05;;;;;;;23.99;67.39;99555.41;5012849;28;20029;-18
2023/06/10 07:20:57;;;;;;;12.15;7.65;;;;;;;24.46;65.69;99549.25;5005208;28;20044;-18
2023/06/10 07:23:23;;;;;;;16.02;8.60;;;;;;;24.80;64.04;99553.81;5007331;28;20255;-19
2023/06/10 07:25:48;;;;;;;10.15;7.03;;;;;;;25.05;61.29;99537.69;5006281;28;20061;-18
2023/06/10 07:28:13;;;;;;;11.88;8.13;;;;;;;25.05;61.96;99532.22;5006864;28;20034;-23
2023/06/10 07:30:39;;;;;;;8.55;7.03;;;;;;;24.97;61.50;99546.72;5008212;28;20023;-18
2023/06/10 07:33:07;;;;;;;10.38;6.85;;;;;;;25.14;61.53;99545.81;5008760;28;20037;-20
2023/06/10 07:35:32;;;;;;;10.43;6.53;;;;;;;25.00;61.39;99540.59;5008166;28;20515;-18
2023/06/10 07:37:58;;;;;;;9.57;6.70;;;;;;;24.99;61.69;99539.00;5013662;28;20036;-17
2023/06/10 07:40:24;;;;;;;13.25;6.68;;;;;;;24.80;59.60;99548.34;5027276;28;20036;-18
2023/06/10 07:42:49;;;;;;;9.85;6.88;;;;;;;24.81;61.16;99544.50;5019457;28;20046;-19
2023/06/10 07:45:15;;;;;;;9.55;6.85;;;;;;;25.10;60.62;99550.34;5020144;28;20462;-19
2023/06/10 07:47:42;;;;;;;8.55;6.28;;;;;;;25.79;59.09;99544.44;5023350;28;20033;-18
2023/06/10 07:50:08;;;;;;;8.32;6.03;;;;;;;26.03;55.99;99543.81;5007973;28;20055;-18
2023/06/10 07:52:34;;;;;;;9.25;5.70;;;;;;;25.90;53.90;99547.59;5016015;28;20156;-19
2023/06/10 07:54:59;;;;;;;8.43;5.65;;;;;;;25.96;55.18;99546.25;5023162;28;20111;-19
2023/06/10 07:57:25;;;;;;;8.35;5.93;;;;;;;25.75;55.98;99548.19;5016346;28;20038;-19
2023/06/10 07:59:50;;;;;;;11.13;6.25;;;;;;;25.51;57.42;99540.66;5017707;28;20475;-18
2023/06/10 08:02:16;;;;;;;8.00;6.05;;;;;;;25.80;57.02;99540.56;5021353;28;20068;-20
2023/06/10 08:04:41;;;;;;;8.93;5.72;;;;;;;26.04;53.98;99539.91;5020674;28;20124;-21
2023/06/10 08:07:07;;;;;;;9.13;6.28;;;;;;;26.17;54.89;99531.78;5023839;28;20026;-19
2023/06/10 08:09:32;;;;;;;7.85;6.20;;;;;;;26.44;56.96;99531.19;5018341;28;20117;-20
2023/06/10 08:11:58;;;;;;;8.43;6.57;;;;;;;26.67;53.47;99522.59;5025044;28;20029;-18
2023/06/10 08:14:23;;;;;;;8.77;6.30;;;;;;;26.45;54.17;99531.97;5017004;28;20026;-19
2023/06/10 08:16:49;;;;;;;8.15;6.72;;;;;;;26.68;55.06;99521.44;5023347;28;20033;-18
2023/06/10 08:19:14;;;;;;;9.32;6.20;;;;;;;26.93;54.05;99518.72;5018158;28;20048;-19
2023/06/10 08:21:40;;;;;;;6.70;5.20;;;;;;;27.17;50.16;99534.34;5023241;28;20401;-18
2023/06/10 08:24:07;;;;;;;8.65;5.10;;;;;;;27.34;48.83;99527.84;5018505;28;20531;-18
2023/06/10 08:26:32;;;;;;;8.30;5.57;;;;;;;27.42;49.46;99524.19;5023345;28;20060;-19
2023/06/10 08:28:57;;;;;;;8.60;5.43;;;;;;;27.53;50.82;99525.31;5017973;28;20092;-18
2023/06/10 08:31:23;;;;;;;9.63;5.68;;;;;;;27.75;50.56;99525.94;5024315;28;20436;-18
2023/06/10 08:33:49;;;;;;;8.27;6.18;;;;;;;27.71;50.67;99533.25;5016786;28;20033;-18
2023/06/10 08:36:14;;;;;;;7.93;5.40;;;;;;;27.76;46.98;99522.03;5025554;28;20033;-19
2023/06/10 08:38:40;;;;;;;8.52;4.93;;;;;;;27.98;48.26;99518.78;5015463;28;20034;-21
2023/06/10 08:41:09;;;;;;;7.45;5.57;;;;;;;27.89;49.13;99520.91;5022398;28;20045;-19
2023/06/10 08:43:48;;;;;;;7.30;4.78;;;;;;;28.15;49.35;99503.19;5007808;28;20115;-20
2023/06/10 08:46:14;;;;;;;7.82;4.55;;;;;;;28.11;44.16;99521.47;5006134;28;20056;-19
2023/06/10 08:48:43;;;;;;;13.02;5.55;;;;;;;28.14;44.47;99512.56;5006607;28;20041;-19
2023/06/10 08:51:10;;;;;;;6.55;4.50;;;;;;;28.52;44.50;99508.47;5006161;28;20044;-21
2023/06/10 08:53:42;;;;;;;7.78;4.53;;;;;;;28.36;43.73;99498.28;5004768;28;20108;-18
2023/06/10 08:56:10;;;;;;;11.00;5.20;;;;;;;28.01;46.79;99493.44;5004175;28;20038;-19
2023/06/10 08:58:41;;;;;;;7.65;5.00;;;;;;;28.42;46.34;99494.13;5006151;28;20025;-19
2023/06/10 09:01:08;;;;;;;8.25;5.10;;;;;;;28.52;45.74;99497.50;5006466;28;20029;-21
2023/06/10 09:03:37;;;;;;;7.60;4.50;;;;;;;28.37;41.37;99483.41;5006115;28;20065;-19
2023/06/10 09:06:05;;;;;;;6.35;4.88;;;;;;;28.81;41.99;99491.56;5005720;28;20167;-19
2023/06/10 09:08:31;;;;;;;8.55;4.72;;;;;;;28.70;43.58;99487.78;5005818;28;20045;-19
2023/06/10 09:10:57;;;;;;;7.15;4.80;;;;;;;29.22;43.63;99475.69;5005840;28;20038;-18
2023/06/10 09:13:23;;;;;;;7.05;5.13;;;;;;;29.54;39.25;99481.03;5005864;28;20029;-19
2023/06/10 09:15:49;;;;;;;6.70;4.60;;;;;;;29.70;39.86;99475.47;4991327;28;20026;-18
2023/06/10 09:18:14;;;;;;;7.32;4.40;;;;;;;29.94;37.57;99479.91;5005914;28;20062;-19
2023/06/10 09:20:41;;;;;;;8.88;4.40;;;;;;;30.00;38.82;99453.72;5005941;28;20413;-19
2023/06/10 09:23:07;;;;;;;6.18;3.88;;;;;;;30.19;38.92;99476.81;5006115;28;20498;-18
2023/06/10 09:25:37;;;;;;;8.82;4.15;;;;;;;30.71;35.47;99469.88;5006003;28;20026;-20
2023/06/10 09:28:04;;;;;;;6.05;3.97;;;;;;;30.49;34.99;99462.44;5005124;28;20180;-18
2023/06/10 09:30:31;;;;;;;6.22;3.63;;;;;;;30.57;33.91;99473.19;5005902;28;20028;-18
2023/06/10 09:32:58;;;;;;;8.57;3.80;;;;;;;30.99;33.68;99460.47;5005848;28;20108;-19
2023/06/10 09:35:25;;;;;;;;;;;;;;;31.11;32.86;99471.28;5006432;28;20030;-17
2023/06/10 09:37:54;;;;;;;7.80;6.03;;;;;;;31.02;34.16;99476.28;5005250;28;19991;-19
2023/06/10 09:40:20;;;;;;;17.77;13.27;;;;;;;30.91;33.80;99469.81;5005882;28;20272;-19
2023/06/10 09:42:48;;;;;;;9.32;3.70;;;;;;;31.08;33.23;99466.53;5007095;28;20041;-20
2023/06/10 09:45:14;;;;;;;9.43;3.97;;;;;;;31.48;33.38;99467.06;5005748;28;20050;-19
2023/06/10 09:47:40;;;;;;;10.20;3.80;;;;;;;31.70;33.42;99476.38;5005604;28;20061;-18
2023/06/10 09:50:05;;;;;;;6.93;3.53;;;;;;;31.63;33.03;99464.13;5005766;28;20481;-19
2023/06/10 09:52:31;;;;;;;7.55;3.58;;;;;;;31.52;33.59;99465.94;5005938;28;20479;-19
2023/06/10 09:55:03;;;;;;;8.77;4.32;;;;;;;31.54;35.03;99466.34;5012418;28;20034;-18
2023/06/10 09:57:33;;;;;;;8.90;3.67;;;;;;;31.81;33.26;99469.84;5022808;28;20511;-19
2023/06/10 09:59:59;;;;;;;4.80;3.17;;;;;;;32.20;33.10;99463.13;5025376;28;20091;-18
2023/06/10 10:02:24;;;;;;;8.43;3.63;;;;;;;31.95;37.12;99458.16;5025446;28;20064;-22
2023/06/10 10:04:50;;;;;;;8.27;3.70;;;;;;;31.88;33.98;99466.34;5025151;28;20065;-18
2023/06/10 10:07:15;;;;;;;5.97;3.78;;;;;;;31.59;34.19;99465.25;5026904;28;20506;-23
2023/06/10 10:09:41;;;;;;;10.98;4.25;;;;;;;31.11;34.21;99451.22;5029482;28;20131;-22
2023/06/10 10:12:15;;;;;;;7.22;4.75;;;;;;;30.86;35.66;99443.38;5029448;28;20055;-21
2023/06/10 10:14:47;;;;;;;7.07;3.78;;;;;;;30.83;38.50;99444.91;5029033;28;20032;-19
2023/06/10 10:17:14;;;;;;;7.20;4.32;;;;;;;30.37;37.27;99422.94;5029600;28;20029;-19
2023/06/10 10:19:47;;;;;;;7.93;3.70;;;;;;;30.29;38.12;99436.94;5029352;28;20029;-19
2023/06/10 10:22:19;;;;;;;5.80;4.10;;;;;;;30.80;38.27;99448.38;5029286;28;20116;-18
2023/06/10 10:24:55;;;;;;;7.45;3.90;;;;;;;30.84;36.46;99440.97;5029221;28;20116;-19
2023/06/10 10:27:28;;;;;;;8.20;3.40;;;;;;;30.69;37.05;99443.88;5029112;28;20613;-18
2023/06/10 10:29:55;;;;;;;6.57;4.32;;;;;;;30.37;35.83;99450.47;5028925;28;20044;-19
2023/06/10 10:32:28;;;;;;;7.45;3.60;;;;;;;30.48;36.80;99445.13;5029067;28;20025;-20
2023/06/10 10:35:02;;;;;;;7.20;3.90;;;;;;;30.58;36.07;99451.97;5028184;28;20033;-22
2023/06/10 10:37:28;;;;;;;7.88;3.55;;;;;;;30.56;34.97;99432.28;5019095;28;20025;-19
2023/06/10 10:39:54;;;;;;;7.07;3.72;;;;;;;30.96;34.56;99442.75;5009171;28;20032;-18
2023/06/10 10:42:20;;;;;;;5.78;3.55;;;;;;;31.31;35.74;99446.38;5008904;28;20045;-18
2023/06/10 10:44:49;;;;;;;6.15;3.47;;;;;;;31.78;34.01;99444.97;5009023;28;20095;-19
2023/06/10 10:47:16;;;;;;;7.40;3.75;;;;;;;31.39;33.35;99453.56;5008736;28;20041;-19
2023/06/10 10:49:44;;;;;;;5.53;3.55;;;;;;;31.14;33.98;99443.00;4991324;28;20040;-19
2023/06/10 10:52:13;;;;;;;6.35;3.40;;;;;;;30.94;34.95;99449.81;5008938;28;20049;-18
2023/06/10 10:54:44;;;;;;;6.07;3.25;;;;;;;30.85;34.46;99441.75;5007462;28;20029;-19
2023/06/10 10:57:20;;;;;;;7.22;3.83;;;;;;;31.02;35.50;99430.25;5008765;28;20026;-19
2023/06/10 10:59:48;;;;;;;8.60;4.30;;;;;;;30.91;37.04;99445.03;5008951;28;20026;-20
2023/06/10 11:02:32;;;;;;;5.97;3.38;;;;;;;31.01;35.29;99453.44;5008812;28;20045;-18
2023/06/10 11:04:58;;;;;;;7.93;3.67;;;;;;;31.03;37.02;99451.09;5008592;28;20463;-19
2023/06/10 11:07:25;;;;;;;8.57;3.38;;;;;;;30.90;35.34;99443.44;5008372;28;20034;-18
2023/06/10 11:10:07;;;;;;;7.40;3.55;;;;;;;30.72;36.06;99441.19;5008663;28;20036;-19
2023/06/10 11:12:48;;;;;;;6.05;3.33;;;;;;;30.93;36.50;99448.19;5008611;28;20113;-19
2023/06/10 11:15:13;;;;;;;5.65;3.13;;;;;;;30.62;35.29;99452.81;5008464;28;20037;-18
2023/06/10 11:18:11;;;;;;;7.70;3.60;;;;;;;30.47;34.89;99445.50;5007925;28;20029;-18
2023/06/10 11:20:55;;;;;;;7.13;3.30;;;;;;;30.32;38.08;99442.53;4995890;28;20538;-18
2023/06/10 11:23:33;;;;;;;6.72;4.10;;;;;;;30.07;37.74;99422.78;5008690;28;20038;-20
2023/06/10 11:26:21;;;;;;;6.00;3.40;;;;;;;30.08;38.34;99426.34;5008509;28;20034;-19